Time;durP1;ratioP1;P1;durP2;ratioP2;P2;SDS_P1;SDS_P2;PMS_P1;PMS_P2;Temp;Humidity;BMP_temperature;BMP_pressure;BME280_temperature;BME280_humidity;BME280_pressure;Samples;Min_cycle;Max_cycle;Signal;HPM_P1;HPM_P2
2022/10/31 00:02:05;;;;;;;20.83;10.85;;;16.50;99.90;;;;;;5110131;28;20020;-75
2022/10/31 00:04:31;;;;;;;21.98;11.77;;;16.50;99.90;;;;;;5102411;28;20028;-75
2022/10/31 00:06:57;;;;;;;23.02;12.07;;;16.60;99.90;;;;;;5086886;28;20376;-75
2022/10/31 00:09:22;;;;;;;25.38;12.15;;;16.60;99.90;;;;;;5105762;28;20435;-75
2022/10/31 00:11:48;;;;;;;25.38;11.63;;;16.60;99.90;;;;;;5083262;28;20058;-75
2022/10/31 00:14:13;;;;;;;25.27;12.00;;;16.50;99.90;;;;;;5107756;28;20031;-75
2022/10/31 00:16:41;;;;;;;29.27;12.35;;;16.50;99.90;;;;;;5109336;28;20057;-75
2022/10/31 00:19:07;;;;;;;26.33;13.00;;;16.50;99.90;;;;;;5107263;28;20042;-74
2022/10/31 00:21:34;;;;;;;28.25;13.10;;;16.50;99.90;;;;;;5108651;28;20051;-75
2022/10/31 00:24:00;;;;;;;20.63;12.13;;;16.50;99.90;;;;;;5110854;28;20039;-75
2022/10/31 00:26:30;;;;;;;20.83;11.60;;;16.50;99.90;;;;;;5107084;28;20380;-74
2022/10/31 00:28:57;;;;;;;22.55;12.30;;;16.50;99.90;;;;;;5104993;28;20030;-75
2022/10/31 00:31:23;;;;;;;22.25;12.07;;;16.50;99.90;;;;;;5109594;28;20046;-75
2022/10/31 00:33:49;;;;;;;22.20;13.73;;;16.50;99.90;;;;;;5088687;28;20469;-75
2022/10/31 00:36:17;;;;;;;25.20;12.77;;;16.40;99.90;;;;;;5106880;28;20035;-75
2022/10/31 00:38:44;;;;;;;22.05;12.25;;;16.40;99.90;;;;;;5091560;28;20144;-75
2022/10/31 00:41:10;;;;;;;21.95;11.52;;;16.50;99.90;;;;;;5104241;28;20028;-75
2022/10/31 00:43:36;;;;;;;23.63;12.02;;;16.50;99.90;;;;;;5100370;28;20028;-75
2022/10/31 00:46:02;;;;;;;28.33;12.55;;;16.50;99.90;;;;;;5104911;28;20023;-75
2022/10/31 00:48:28;;;;;;;22.75;13.30;;;16.50;99.90;;;;;;5106497;28;20456;-74
2022/10/31 00:50:54;;;;;;;19.98;11.65;;;16.50;99.90;;;;;;5104035;28;20539;-74
2022/10/31 00:53:20;;;;;;;18.13;11.15;;;16.50;99.90;;;;;;5086289;28;20027;-74
2022/10/31 00:55:46;;;;;;;24.80;12.23;;;16.50;99.90;;;;;;5091472;28;20142;-75
2022/10/31 00:58:12;;;;;;;21.75;11.32;;;16.50;99.90;;;;;;5105892;28;20122;-75
2022/10/31 01:00:38;;;;;;;16.38;11.35;;;16.40;99.90;;;;;;5109811;28;20042;-75
2022/10/31 01:03:03;;;;;;;22.30;12.05;;;16.30;99.90;;;;;;5103945;28;20109;-74
2022/10/31 01:05:29;;;;;;;17.40;10.02;;;16.40;99.90;;;;;;5102711;28;20034;-74
2022/10/31 01:07:55;;;;;;;25.98;11.70;;;16.40;99.90;;;;;;5107811;28;20027;-75
2022/10/31 01:10:21;;;;;;;20.45;10.60;;;16.40;99.90;;;;;;5109700;28;20031;-75
2022/10/31 01:12:48;;;;;;;23.67;11.05;;;16.30;99.90;;;;;;5105163;28;20027;-74
2022/10/31 01:15:17;;;;;;;18.42;10.10;;;16.40;99.90;;;;;;5103670;28;20042;-75
2022/10/31 01:17:43;;;;;;;20.58;9.73;;;16.30;99.90;;;;;;5106721;28;20028;-74
2022/10/31 01:20:10;;;;;;;19.85;11.18;;;16.20;99.90;;;;;;5091404;28;20047;-74
2022/10/31 01:22:35;;;;;;;21.50;11.13;;;16.10;99.90;;;;;;5108857;28;20051;-75
2022/10/31 01:25:01;;;;;;;22.77;11.10;;;16.10;99.90;;;;;;5105211;28;20066;-74
2022/10/31 01:27:27;;;;;;;19.55;10.25;;;16.10;99.90;;;;;;5105882;28;20434;-75
2022/10/31 01:29:53;;;;;;;18.02;9.73;;;16.10;99.90;;;;;;5098195;28;20108;-74
2022/10/31 01:32:18;;;;;;;21.75;10.70;;;16.10;99.90;;;;;;5099497;28;20495;-74
2022/10/31 01:34:44;;;;;;;15.50;9.00;;;16.10;99.90;;;;;;5097187;28;20027;-75
2022/10/31 01:37:10;;;;;;;19.23;9.68;;;16.10;99.90;;;;;;5108452;28;20040;-75
2022/10/31 01:39:35;;;;;;;16.55;10.02;;;16.00;99.90;;;;;;5103378;28;20508;-75
2022/10/31 01:42:01;;;;;;;18.23;9.48;;;15.90;99.90;;;;;;5104667;28;20031;-75
2022/10/31 01:44:26;;;;;;;22.27;10.60;;;15.90;99.90;;;;;;5111229;28;20027;-74
2022/10/31 01:46:57;;;;;;;19.42;11.07;;;15.80;99.90;;;;;;5112158;28;20024;-75
2022/10/31 01:49:52;;;;;;;16.02;10.00;;;15.80;99.90;;;;;;5110635;28;20035;-75
2022/10/31 01:52:21;;;;;;;15.82;9.50;;;15.90;99.90;;;;;;5103898;28;20097;-75
2022/10/31 01:55:21;;;;;;;27.77;9.98;;;15.80;99.90;;;;;;5106856;28;20094;-74
2022/10/31 01:57:50;;;;;;;15.90;9.75;;;15.90;99.90;;;;;;5103918;28;20036;-75
2022/10/31 02:00:17;;;;;;;20.80;10.23;;;15.80;99.90;;;;;;5105125;28;20096;-74
2022/10/31 02:02:44;;;;;;;19.40;11.32;;;15.80;99.90;;;;;;5111934;28;20019;-75
2022/10/31 02:05:14;;;;;;;15.82;10.75;;;15.80;99.90;;;;;;5111364;28;20077;-75
2022/10/31 02:07:47;;;;;;;17.85;10.60;;;15.80;99.90;;;;;;5107591;28;20054;-75
2022/10/31 02:10:13;;;;;;;16.90;10.18;;;15.80;99.90;;;;;;5104547;28;20126;-75
2022/10/31 02:12:40;;;;;;;18.35;9.63;;;15.70;99.90;;;;;;5111846;28;20138;-75
2022/10/31 02:15:07;;;;;;;25.27;10.45;;;15.70;99.90;;;;;;5110734;28;20024;-75
2022/10/31 02:17:33;;;;;;;22.42;10.57;;;15.70;99.90;;;;;;5103668;28;20089;-75
2022/10/31 02:20:11;;;;;;;24.52;13.32;;;15.70;99.90;;;;;;5102448;28;20044;-74
2022/10/31 02:23:11;;;;;;;26.33;13.18;;;15.50;99.90;;;;;;5110360;28;20019;-75
2022/10/31 02:25:36;;;;;;;20.92;12.70;;;15.60;99.90;;;;;;5091139;28;20409;-75
2022/10/31 02:28:30;;;;;;;22.10;12.75;;;15.50;99.90;;;;;;5110405;28;20080;-75
2022/10/31 02:31:14;;;;;;;24.30;12.35;;;15.60;99.90;;;;;;5109673;28;20523;-74
2022/10/31 02:33:54;;;;;;;21.02;11.10;;;15.60;99.90;;;;;;5105587;28;20058;-75
2022/10/31 02:36:33;;;;;;;24.50;11.18;;;15.50;99.90;;;;;;5108255;28;20031;-75
2022/10/31 02:39:08;;;;;;;20.08;13.05;;;15.50;99.90;;;;;;5104842;28;20071;-75
2022/10/31 02:41:57;;;;;;;26.73;12.73;;;15.50;99.90;;;;;;5104999;28;20026;-74
2022/10/31 02:44:50;;;;;;;18.63;12.45;;;15.50;99.90;;;;;;5102671;28;20016;-74
2022/10/31 02:47:25;;;;;;;22.40;12.93;;;15.50;99.90;;;;;;5085635;28;20038;-75
2022/10/31 02:50:02;;;;;;;26.05;13.65;;;15.50;99.90;;;;;;5106692;28;20043;-75
2022/10/31 02:52:30;;;;;;;24.90;13.55;;;15.50;99.90;;;;;;5108406;28;20026;-75
2022/10/31 02:54:56;;;;;;;29.83;12.65;;;15.50;99.90;;;;;;5113629;28;20046;-74
2022/10/31 02:57:32;;;;;;;26.73;14.77;;;15.50;99.90;;;;;;5105170;28;20483;-75
2022/10/31 03:00:05;;;;;;;24.33;14.55;;;15.40;99.90;;;;;;5099678;28;20489;-75
2022/10/31 03:02:39;;;;;;;;;;;15.50;99.90;;;;;;5101295;28;20094;-75
2022/10/31 03:05:24;;;;;;;27.75;13.65;;;15.40;99.90;;;;;;5111208;28;20526;-75
2022/10/31 03:08:15;;;;;;;24.10;13.38;;;15.50;99.90;;;;;;5102247;28;20507;-75
2022/10/31 03:10:43;;;;;;;24.85;12.70;;;15.40;99.90;;;;;;5107251;28;20050;-74
2022/10/31 03:13:34;;;;;;;22.05;12.32;;;15.40;99.90;;;;;;5107785;28;20016;-75
2022/10/31 03:16:37;;;;;;;25.48;13.77;;;15.40;99.90;;;;;;5106348;28;20057;-75
2022/10/31 03:19:10;;;;;;;21.90;14.05;;;15.40;99.90;;;;;;5101607;28;20483;-75
2022/10/31 03:21:49;;;;;;;34.05;14.00;;;15.40;99.90;;;;;;5104974;28;20422;-75
2022/10/31 03:24:16;;;;;;;26.95;14.45;;;15.30;99.90;;;;;;5108551;28;20027;-75
2022/10/31 03:26:49;;;;;;;30.42;14.85;;;15.30;99.90;;;;;;5112541;28;20020;-75
2022/10/31 03:29:19;;;;;;;28.73;15.30;;;15.20;99.90;;;;;;5105433;28;20361;-75
2022/10/31 03:32:08;;;;;;;30.85;17.35;;;15.20;99.90;;;;;;5104692;28;20095;-75
2022/10/31 03:34:37;;;;;;;28.80;16.20;;;15.10;99.90;;;;;;5105361;28;20076;-74
2022/10/31 03:37:06;;;;;;;32.58;17.02;;;15.00;99.90;;;;;;5085239;28;20028;-75
2022/10/31 03:39:34;;;;;;;33.22;17.63;;;15.00;99.90;;;;;;5089865;28;20066;-75
2022/10/31 03:42:10;;;;;;;33.60;20.15;;;15.00;99.90;;;;;;5102700;28;20073;-75
2022/10/31 03:44:38;;;;;;;34.47;18.48;;;15.00;99.90;;;;;;5107523;28;20055;-75
2022/10/31 03:47:05;;;;;;;27.48;16.10;;;15.00;99.90;;;;;;5086758;28;20564;-75
2022/10/31 03:49:32;;;;;;;28.42;18.80;;;15.10;99.90;;;;;;5106030;28;20066;-75
2022/10/31 03:52:09;;;;;;;32.45;19.10;;;15.10;99.90;;;;;;5113544;28;20015;-75
2022/10/31 03:54:44;;;;;;;34.67;17.65;;;15.10;99.90;;;;;;5105641;28;20106;-75
2022/10/31 03:57:35;;;;;;;26.33;16.63;;;15.10;99.90;;;;;;5101780;28;20529;-75
2022/10/31 04:00:19;;;;;;;33.63;18.05;;;15.10;99.90;;;;;;5087966;28;20062;-75
2022/10/31 04:03:03;;;;;;;28.33;16.42;;;15.10;99.90;;;;;;5091596;28;20023;-75
2022/10/31 04:05:30;;;;;;;31.52;17.20;;;15.10;99.90;;;;;;5101903;28;20095;-75
2022/10/31 04:07:57;;;;;;;34.65;18.20;;;15.10;99.90;;;;;;5087074;28;20502;-75
2022/10/31 04:10:25;;;;;;;29.92;16.80;;;15.00;99.90;;;;;;5103661;28;20038;-74
2022/10/31 04:13:01;;;;;;;38.30;19.17;;;15.10;99.90;;;;;;5104958;28;20056;-74
2022/10/31 04:15:28;;;;;;;29.75;17.50;;;15.00;99.90;;;;;;5105235;28;20046;-75
2022/10/31 04:17:57;;;;;;;31.35;16.58;;;15.10;99.90;;;;;;5104748;28;20034;-75
2022/10/31 04:20:34;;;;;;;30.10;17.00;;;15.10;99.90;;;;;;5100803;28;20047;-75
2022/10/31 04:23:00;;;;;;;28.15;16.75;;;15.10;99.90;;;;;;5100615;28;20043;-75
2022/10/31 04:25:26;;;;;;;30.45;17.75;;;15.10;99.90;;;;;;5087974;28;20024;-75
2022/10/31 04:27:52;;;;;;;36.03;18.30;;;15.10;99.90;;;;;;5105160;28;20038;-75
2022/10/31 04:30:17;;;;;;;30.80;17.77;;;15.10;99.90;;;;;;5099679;28;20074;-75
2022/10/31 04:32:43;;;;;;;42.42;17.27;;;15.10;99.90;;;;;;5104781;28;20028;-75
2022/10/31 04:35:08;;;;;;;35.55;18.92;;;15.20;99.90;;;;;;5104328;28;20031;-75
2022/10/31 04:37:34;;;;;;;38.90;17.90;;;15.10;99.90;;;;;;5105949;28;20423;-75
2022/10/31 04:39:59;;;;;;;30.15;15.70;;;15.10;99.90;;;;;;5101858;28;20040;-75
2022/10/31 04:42:28;;;;;;;36.47;16.63;;;15.10;99.90;;;;;;5110452;28;20460;-75
2022/10/31 04:44:54;;;;;;;28.00;17.00;;;15.10;99.90;;;;;;5102432;28;20457;-75
2022/10/31 04:47:19;;;;;;;35.05;20.15;;;15.10;99.90;;;;;;5106139;28;20019;-75
2022/10/31 04:49:45;;;;;;;28.20;16.95;;;15.10;99.90;;;;;;5101132;28;20016;-75
2022/10/31 04:52:10;;;;;;;33.08;18.48;;;15.10;99.90;;;;;;5110211;28;20058;-75
2022/10/31 04:54:36;;;;;;;32.45;18.67;;;15.10;99.90;;;;;;5102927;28;20015;-75
2022/10/31 04:57:01;;;;;;;31.00;16.35;;;15.00;99.90;;;;;;5102929;28;20031;-74
2022/10/31 04:59:27;;;;;;;34.78;16.60;;;15.00;99.90;;;;;;5105193;28;20116;-74
2022/10/31 05:01:53;;;;;;;44.97;19.80;;;15.00;99.90;;;;;;5092163;28;20059;-74
2022/10/31 05:04:18;;;;;;;34.45;19.38;;;15.00;99.90;;;;;;5102965;28;20366;-74
2022/10/31 05:06:44;;;;;;;34.42;18.20;;;15.00;99.90;;;;;;5109584;28;20081;-74
2022/10/31 05:09:09;;;;;;;36.72;17.08;;;14.90;99.90;;;;;;5101344;28;20417;-74
2022/10/31 05:11:35;;;;;;;27.25;16.17;;;14.90;99.90;;;;;;5089263;28;20024;-75
2022/10/31 05:14:00;;;;;;;30.48;15.00;;;14.90;99.90;;;;;;5108372;28;20039;-74
2022/10/31 05:16:26;;;;;;;30.80;16.42;;;15.00;99.90;;;;;;5108357;28;20024;-74
2022/10/31 05:18:51;;;;;;;27.88;17.00;;;14.90;99.90;;;;;;5105419;28;20495;-74
2022/10/31 05:21:17;;;;;;;30.67;16.23;;;14.90;99.90;;;;;;5102896;28;20063;-74
2022/10/31 05:23:43;;;;;;;29.23;16.08;;;14.90;99.90;;;;;;5107577;28;20122;-74
2022/10/31 05:26:08;;;;;;;29.85;18.25;;;14.90;99.90;;;;;;5106310;28;20437;-74
2022/10/31 05:28:34;;;;;;;34.13;20.23;;;14.80;99.90;;;;;;5104769;27;20032;-74
2022/10/31 05:30:59;;;;;;;39.10;21.05;;;14.90;99.90;;;;;;5105760;28;20024;-75
2022/10/31 05:33:25;;;;;;;38.83;22.63;;;14.80;99.90;;;;;;5094494;28;20035;-74
2022/10/31 05:35:50;;;;;;;39.00;21.58;;;14.80;99.90;;;;;;5110560;28;20110;-74
2022/10/31 05:38:16;;;;;;;40.20;22.73;;;14.80;99.90;;;;;;5111584;28;20028;-74
2022/10/31 05:40:42;;;;;;;33.45;21.52;;;14.80;99.90;;;;;;5105711;28;20028;-74
2022/10/31 05:43:07;;;;;;;33.00;19.30;;;14.80;99.90;;;;;;5108532;28;20111;-74
2022/10/31 05:45:33;;;;;;;20.23;13.00;;;14.80;99.90;;;;;;5110662;28;20028;-75
2022/10/31 05:48:00;;;;;;;20.48;10.23;;;14.70;99.90;;;;;;5105579;28;20043;-74
2022/10/31 05:50:28;;;;;;;15.35;10.15;;;14.70;99.90;;;;;;5105906;28;20062;-74
2022/10/31 05:52:56;;;;;;;18.00;11.63;;;14.70;99.90;;;;;;5110433;28;20114;-74
2022/10/31 05:55:21;;;;;;;25.33;14.45;;;14.70;99.90;;;;;;5108210;28;20036;-74
2022/10/31 05:57:47;;;;;;;24.13;15.60;;;14.70;99.90;;;;;;5108082;28;20076;-74
2022/10/31 06:00:12;;;;;;;28.15;15.02;;;14.60;99.90;;;;;;5106463;27;20040;-74
2022/10/31 06:02:38;;;;;;;30.98;18.25;;;14.60;99.90;;;;;;5108146;28;20049;-74
2022/10/31 06:05:04;;;;;;;36.25;17.33;;;14.50;99.90;;;;;;5105954;28;20365;-74
2022/10/31 06:07:34;;;;;;;33.55;19.65;;;14.50;99.90;;;;;;5106188;28;20062;-74
2022/10/31 06:10:00;;;;;;;51.85;25.98;;;14.40;99.90;;;;;;5106235;28;20119;-74
2022/10/31 06:12:26;;;;;;;35.03;19.90;;;14.30;99.90;;;;;;5104955;28;20017;-74
2022/10/31 06:14:52;;;;;;;35.33;19.92;;;14.40;99.90;;;;;;5110321;28;20028;-74
2022/10/31 06:17:17;;;;;;;41.40;21.90;;;14.30;99.90;;;;;;5106198;28;20035;-74
2022/10/31 06:19:43;;;;;;;39.53;20.40;;;14.30;99.90;;;;;;5091181;28;20028;-74
2022/10/31 06:22:10;;;;;;;43.67;21.65;;;14.40;99.90;;;;;;5103996;27;20369;-74
2022/10/31 06:24:36;;;;;;;47.45;24.98;;;14.40;99.90;;;;;;5109762;28;20384;-74
2022/10/31 06:27:02;;;;;;;34.95;20.98;;;14.40;99.90;;;;;;5110911;28;20463;-74
2022/10/31 06:29:27;;;;;;;23.17;15.10;;;14.40;99.90;;;;;;5105641;28;20421;-74
2022/10/31 06:31:53;;;;;;;37.67;20.45;;;14.40;99.90;;;;;;5091120;28;20031;-74
2022/10/31 06:34:18;;;;;;;38.55;21.70;;;14.40;99.90;;;;;;5109078;28;20053;-74
2022/10/31 06:36:46;;;;;;;37.97;22.10;;;14.40;99.90;;;;;;5105257;27;20023;-74
2022/10/31 06:39:11;;;;;;;37.05;20.65;;;14.30;99.90;;;;;;5107215;28;20032;-74
2022/10/31 06:41:39;;;;;;;28.98;17.25;;;14.30;99.90;;;;;;5105411;28;20361;-74
2022/10/31 06:44:05;;;;;;;32.80;17.88;;;14.30;99.90;;;;;;5108950;28;20416;-74
2022/10/31 06:46:31;;;;;;;30.55;17.38;;;14.30;99.90;;;;;;5104284;28;20468;-74
2022/10/31 06:48:57;;;;;;;32.97;17.00;;;14.40;99.90;;;;;;5105304;28;20046;-74
2022/10/31 06:51:23;;;;;;;35.45;16.45;;;14.30;99.90;;;;;;5087262;28;20026;-74
2022/10/31 06:53:48;;;;;;;27.58;14.88;;;14.30;99.90;;;;;;5102070;28;20035;-73
2022/10/31 06:56:14;;;;;;;31.73;16.17;;;14.30;99.90;;;;;;5110560;28;20464;-73
2022/10/31 06:58:39;;;;;;;29.48;17.48;;;14.30;99.90;;;;;;5099766;28;20150;-73
2022/10/31 07:01:05;;;;;;;27.30;18.70;;;14.30;99.90;;;;;;5104163;28;20096;-74
2022/10/31 07:03:31;;;;;;;33.55;21.17;;;14.20;99.90;;;;;;5112323;28;20059;-74
2022/10/31 07:05:56;;;;;;;33.85;18.20;;;14.20;99.90;;;;;;5103520;28;20035;-74
2022/10/31 07:08:23;;;;;;;28.58;16.55;;;14.20;99.90;;;;;;5106980;28;20027;-74
2022/10/31 07:10:54;;;;;;;37.05;19.83;;;14.20;99.90;;;;;;5102342;28;20411;-74
2022/10/31 07:13:24;;;;;;;42.53;20.65;;;14.20;99.90;;;;;;5106218;28;20032;-74
2022/10/31 07:15:50;;;;;;;36.40;20.75;;;14.20;99.90;;;;;;5106857;28;20081;-73
2022/10/31 07:18:16;;;;;;;38.45;19.63;;;14.20;99.90;;;;;;5108056;28;20088;-74
2022/10/31 07:20:42;;;;;;;39.40;19.90;;;14.20;99.90;;;;;;5102718;28;20040;-74
2022/10/31 07:23:09;;;;;;;50.47;24.85;;;14.20;99.90;;;;;;5109309;28;20043;-74
2022/10/31 07:25:35;;;;;;;47.03;22.42;;;14.20;99.90;;;;;;5102303;27;20019;-74
2022/10/31 07:28:01;;;;;;;48.90;25.73;;;14.20;99.90;;;;;;5106963;28;20028;-73
2022/10/31 07:30:26;;;;;;;74.18;27.85;;;14.20;99.90;;;;;;5085249;28;20028;-73
2022/10/31 07:32:52;;;;;;;39.65;22.35;;;14.20;99.90;;;;;;5106755;28;20451;-73
2022/10/31 07:35:26;;;;;;;47.78;24.30;;;14.10;99.90;;;;;;5105996;28;20498;-73
2022/10/31 07:37:52;;;;;;;42.17;20.13;;;14.10;99.90;;;;;;5085165;28;20032;-73
2022/10/31 07:40:19;;;;;;;44.45;20.55;;;14.00;99.90;;;;;;5104203;28;20043;-73
2022/10/31 07:42:46;;;;;;;38.90;20.77;;;14.00;99.90;;;;;;5105289;28;20474;-74
2022/10/31 07:45:18;;;;;;;31.98;18.52;;;14.10;99.90;;;;;;5102708;28;20027;-73
2022/10/31 07:47:48;;;;;;;37.20;20.48;;;14.10;99.90;;;;;;5108522;28;20051;-73
2022/10/31 07:50:16;;;;;;;31.13;19.17;;;14.20;99.90;;;;;;5085293;28;20067;-74
2022/10/31 07:52:42;;;;;;;37.65;21.25;;;14.20;99.90;;;;;;5108796;28;20015;-74
2022/10/31 07:55:08;;;;;;;32.63;20.27;;;14.30;99.90;;;;;;5104646;28;20023;-74
2022/10/31 07:57:36;;;;;;;40.85;23.60;;;14.30;99.90;;;;;;5105902;28;20015;-74
2022/10/31 08:00:03;;;;;;;35.03;20.23;;;14.30;99.90;;;;;;5108084;28;20048;-74
2022/10/31 08:02:29;;;;;;;35.25;20.27;;;14.30;99.90;;;;;;5102922;28;20095;-74
2022/10/31 08:04:54;;;;;;;37.03;19.70;;;14.30;99.90;;;;;;5102959;28;20123;-74
2022/10/31 08:07:20;;;;;;;33.45;17.55;;;14.40;99.90;;;;;;5103602;28;20027;-74
2022/10/31 08:09:46;;;;;;;45.55;21.58;;;14.20;99.90;;;;;;5089593;28;20547;-74
2022/10/31 08:12:11;;;;;;;42.00;20.45;;;14.10;99.90;;;;;;5106082;28;20541;-74
2022/10/31 08:14:37;;;;;;;38.58;19.98;;;14.10;99.90;;;;;;5101229;28;20353;-74
2022/10/31 08:17:02;;;;;;;36.30;18.00;;;14.10;99.90;;;;;;5106456;28;20110;-74
2022/10/31 08:19:28;;;;;;;29.70;18.17;;;14.20;99.90;;;;;;5099223;28;20039;-74
2022/10/31 08:21:54;;;;;;;37.28;20.58;;;14.30;99.90;;;;;;5090409;28;20536;-74
2022/10/31 08:24:21;;;;;;;31.25;19.15;;;14.40;99.90;;;;;;5100781;28;20039;-74
2022/10/31 08:26:47;;;;;;;31.33;18.77;;;14.40;99.90;;;;;;5104149;28;20027;-74
2022/10/31 08:29:14;;;;;;;36.42;20.33;;;14.40;99.90;;;;;;5099483;28;20388;-74
2022/10/31 08:31:40;;;;;;;38.10;22.48;;;14.40;99.90;;;;;;5105995;28;20081;-73
2022/10/31 08:34:05;;;;;;;43.50;22.63;;;14.40;99.90;;;;;;5107937;28;20020;-74
2022/10/31 08:36:31;;;;;;;30.77;17.50;;;14.30;99.90;;;;;;5109098;28;20522;-74
2022/10/31 08:38:56;;;;;;;33.22;18.98;;;14.30;99.90;;;;;;5086255;28;20108;-74
2022/10/31 08:41:22;;;;;;;28.42;17.83;;;14.30;99.90;;;;;;5086629;28;20016;-74
2022/10/31 08:43:48;;;;;;;30.10;18.38;;;14.40;99.90;;;;;;5102557;28;20031;-74
2022/10/31 08:46:14;;;;;;;28.23;18.98;;;14.40;99.90;;;;;;5106634;28;20497;-74
2022/10/31 08:48:39;;;;;;;29.75;19.85;;;14.50;99.90;;;;;;5102434;28;20028;-73
2022/10/31 08:51:05;;;;;;;29.25;20.80;;;14.70;99.90;;;;;;5106992;28;20028;-74
2022/10/31 08:53:31;;;;;;;28.05;19.23;;;14.70;99.90;;;;;;5107643;28;20036;-74
2022/10/31 08:55:56;;;;;;;29.17;19.35;;;14.60;99.90;;;;;;5104794;28;20031;-74
2022/10/31 08:58:23;;;;;;;30.20;21.17;;;14.80;99.90;;;;;;5108663;28;20085;-73
2022/10/31 09:00:56;;;;;;;37.25;25.00;;;14.80;99.90;;;;;;5106935;28;20028;-74
2022/10/31 09:03:24;;;;;;;38.22;25.95;;;15.00;99.90;;;;;;5092199;28;20092;-74
2022/10/31 09:05:50;;;;;;;48.80;29.48;;;15.10;99.90;;;;;;5109357;28;20034;-74
2022/10/31 09:08:16;;;;;;;41.80;27.73;;;15.10;99.90;;;;;;5111125;28;20072;-74
2022/10/31 09:10:43;;;;;;;46.88;27.02;;;15.20;99.90;;;;;;5103438;28;20072;-74
2022/10/31 09:13:20;;;;;;;38.15;24.50;;;15.30;99.90;;;;;;5111439;28;20032;-74
2022/10/31 09:15:48;;;;;;;47.13;27.60;;;15.40;99.90;;;;;;5105333;28;20553;-73
2022/10/31 09:18:16;;;;;;;48.28;29.40;;;15.50;99.90;;;;;;5107905;28;20035;-74
2022/10/31 09:20:43;;;;;;;50.03;30.90;;;15.40;99.90;;;;;;5104513;28;20032;-74
2022/10/31 09:23:14;;;;;;;57.45;32.10;;;15.40;99.90;;;;;;5107784;28;20102;-74
2022/10/31 09:25:40;;;;;;;65.75;35.85;;;15.30;99.90;;;;;;5106249;27;20047;-74
2022/10/31 09:28:08;;;;;;;63.58;37.53;;;15.40;99.90;;;;;;5110813;28;20106;-74
2022/10/31 09:30:35;;;;;;;63.65;37.40;;;15.40;99.90;;;;;;5108026;28;20356;-74
2022/10/31 09:33:03;;;;;;;56.65;33.58;;;15.50;99.90;;;;;;5110462;28;20023;-74
2022/10/31 09:35:29;;;;;;;53.72;31.02;;;15.60;99.90;;;;;;5104028;27;20027;-72
2022/10/31 09:38:02;;;;;;;59.30;31.95;;;15.70;99.90;;;;;;5109763;28;20036;-72
2022/10/31 09:40:40;;;;;;;66.32;34.85;;;15.80;99.90;;;;;;5106043;28;20080;-72
2022/10/31 09:43:27;;;;;;;50.40;30.20;;;15.80;99.90;;;;;;5110750;28;20024;-73
2022/10/31 09:46:02;;;;;;;52.30;30.45;;;15.90;99.90;;;;;;5103819;28;20042;-72
2022/10/31 09:48:36;;;;;;;70.05;37.45;;;16.10;99.90;;;;;;5110541;28;20551;-72
2022/10/31 09:51:09;;;;;;;60.50;31.23;;;16.20;99.90;;;;;;5105037;28;20100;-73
2022/10/31 09:53:44;;;;;;;59.78;34.40;;;16.30;99.90;;;;;;5107417;28;20098;-72
2022/10/31 09:56:16;;;;;;;62.20;35.88;;;16.30;99.90;;;;;;5107062;27;20031;-72
2022/10/31 09:58:47;;;;;;;66.40;37.92;;;16.30;99.90;;;;;;5106677;28;20032;-72
2022/10/31 10:01:42;;;;;;;67.60;33.97;;;16.40;99.90;;;;;;5105677;28;20027;-72
2022/10/31 10:04:20;;;;;;;83.68;38.30;;;16.50;99.90;;;;;;5102377;28;20027;-72
2022/10/31 10:06:49;;;;;;;70.78;34.78;;;16.50;99.90;;;;;;5108313;27;20028;-72
2022/10/31 10:09:15;;;;;;;74.78;37.30;;;16.60;99.90;;;;;;5105556;28;20015;-72
2022/10/31 10:11:40;;;;;;;78.65;39.83;;;16.60;99.90;;;;;;5107575;28;20039;-72
2022/10/31 10:14:42;;;;;;;75.75;38.78;;;16.60;99.90;;;;;;5105627;27;20024;-72
2022/10/31 10:17:12;;;;;;;85.18;41.10;;;16.50;99.90;;;;;;5109976;28;20032;-72
2022/10/31 10:19:41;;;;;;;71.95;41.05;;;16.60;99.90;;;;;;5104708;28;20109;-72
2022/10/31 10:22:36;;;;;;;80.47;40.53;;;16.70;99.90;;;;;;5101456;28;20024;-73
2022/10/31 10:25:11;;;;;;;86.07;41.10;;;16.70;99.90;;;;;;5106725;28;20106;-72
2022/10/31 10:27:47;;;;;;;78.43;39.95;;;16.70;99.90;;;;;;5103912;28;20026;-75
2022/10/31 10:30:23;;;;;;;86.65;42.63;;;16.80;99.90;;;;;;5106041;28;20024;-76
2022/10/31 10:32:56;;;;;;;69.22;37.53;;;16.80;99.90;;;;;;5107269;28;20011;-76
2022/10/31 10:35:45;;;;;;;84.78;42.38;;;16.90;99.90;;;;;;5105319;28;20566;-76
2022/10/31 10:38:33;;;;;;;83.60;42.05;;;16.90;99.90;;;;;;5112602;28;20110;-74
2022/10/31 10:41:03;;;;;;;84.07;42.33;;;17.00;99.90;;;;;;5107465;28;20050;-74
2022/10/31 10:43:35;;;;;;;76.68;38.17;;;17.00;99.90;;;;;;5090037;28;20019;-74
2022/10/31 10:48:58;;;;;;;;;;;17.00;99.90;;;;;;5105506;27;20367;-74
2022/10/31 10:51:46;;;;;;;79.45;40.65;;;17.10;99.90;;;;;;5107850;28;20356;-74
2022/10/31 10:54:30;;;;;;;75.53;38.85;;;17.10;99.90;;;;;;5102269;28;20017;-74
2022/10/31 10:57:18;;;;;;;80.80;43.95;;;17.20;99.90;;;;;;5102561;28;20557;-74
2022/10/31 10:59:45;;;;;;;77.25;40.50;;;17.20;99.90;;;;;;5105765;28;20452;-74
2022/10/31 11:02:20;;;;;;;79.75;42.55;;;17.30;99.90;;;;;;5090181;28;20073;-74
2022/10/31 11:04:54;;;;;;;80.35;41.45;;;17.30;99.90;;;;;;5104546;28;20038;-72
2022/10/31 11:07:20;;;;;;;78.03;43.15;;;17.40;99.90;;;;;;5106238;28;20027;-74
2022/10/31 11:09:46;;;;;;;74.30;40.15;;;17.40;99.90;;;;;;5103890;28;20027;-74
2022/10/31 11:12:31;;;;;;;84.25;41.83;;;17.50;99.90;;;;;;5111603;28;20020;-75
2022/10/31 11:15:06;;;;;;;77.75;41.40;;;17.50;99.90;;;;;;5102758;27;20447;-76
2022/10/31 11:17:36;;;;;;;74.65;39.25;;;17.60;99.90;;;;;;5106140;28;20027;-75
2022/10/31 11:20:14;;;;;;;74.82;41.10;;;17.70;99.90;;;;;;5108774;28;20039;-75
2022/10/31 11:22:42;;;;;;;76.47;39.90;;;17.80;99.90;;;;;;5103017;28;20433;-76
2022/10/31 11:25:24;;;;;;;72.88;38.95;;;17.80;99.90;;;;;;5106756;28;20031;-75
2022/10/31 11:28:10;;;;;;;75.40;37.55;;;17.90;99.90;;;;;;5102511;28;20032;-75
2022/10/31 11:30:47;;;;;;;70.18;36.97;;;17.90;99.90;;;;;;5105117;28;20051;-75
2022/10/31 11:33:28;;;;;;;70.63;37.47;;;17.90;99.90;;;;;;5104293;28;20059;-75
2022/10/31 11:35:54;;;;;;;64.03;34.58;;;17.90;99.90;;;;;;5104275;28;20298;-75
2022/10/31 11:38:23;;;;;;;57.28;31.85;;;17.90;99.90;;;;;;5083801;28;20357;-75
2022/10/31 11:40:53;;;;;;;61.33;32.92;;;17.90;99.90;;;;;;5105516;28;20028;-75
2022/10/31 11:43:19;;;;;;;62.63;33.60;;;17.90;99.90;;;;;;5106677;28;20387;-75
2022/10/31 11:45:45;;;;;;;66.43;31.70;;;18.00;99.90;;;;;;5107192;28;20020;-75
2022/10/31 11:48:24;;;;;;;59.53;34.13;;;18.00;99.90;;;;;;5104889;28;20494;-75
2022/10/31 11:50:54;;;;;;;58.63;29.33;;;18.00;99.90;;;;;;5104197;28;20031;-75
2022/10/31 11:53:29;;;;;;;57.80;31.10;;;18.00;99.90;;;;;;5106537;28;20028;-75
2022/10/31 11:56:05;;;;;;;52.85;27.23;;;18.00;99.90;;;;;;5088865;28;20032;-76
2022/10/31 11:58:31;;;;;;;47.03;25.23;;;17.90;99.90;;;;;;5105822;28;20034;-75
2022/10/31 12:00:57;;;;;;;54.22;26.92;;;17.90;99.90;;;;;;5093867;28;20031;-75
2022/10/31 12:03:23;;;;;;;51.40;26.58;;;17.90;99.90;;;;;;5108203;28;20115;-75
2022/10/31 12:06:19;;;;;;;44.65;25.83;;;18.00;99.90;;;;;;5104769;28;20106;-75
2022/10/31 12:08:45;;;;;;;49.78;28.27;;;18.00;99.90;;;;;;5095448;28;20040;-75
2022/10/31 12:11:17;;;;;;;46.75;27.80;;;18.10;99.90;;;;;;5089429;28;20550;-75
2022/10/31 12:13:52;;;;;;;51.63;25.33;;;18.20;99.90;;;;;;5089622;28;20041;-75
2022/10/31 12:16:44;;;;;;;43.17;24.70;;;18.20;99.90;;;;;;5107891;28;20257;-75
2022/10/31 12:19:28;;;;;;;43.10;25.55;;;18.20;99.90;;;;;;5085301;28;20408;-75
2022/10/31 12:22:09;;;;;;;42.83;25.33;;;18.40;99.90;;;;;;5105294;28;20035;-75
2022/10/31 12:25:08;;;;;;;42.40;24.33;;;18.50;99.90;;;;;;5102498;28;20023;-75
2022/10/31 12:27:55;;;;;;;41.22;24.83;;;18.50;99.90;;;;;;5098714;28;20059;-75
2022/10/31 12:30:48;;;;;;;45.85;23.35;;;18.50;99.90;;;;;;5099776;28;20028;-75
2022/10/31 12:33:43;;;;;;;40.53;21.48;;;18.50;99.90;;;;;;5102984;28;20675;-75
2022/10/31 12:36:09;;;;;;;38.67;21.45;;;18.50;99.90;;;;;;5076734;28;20126;-74
2022/10/31 12:38:54;;;;;;;55.28;26.58;;;18.50;99.90;;;;;;5087575;28;20111;-75
2022/10/31 12:41:33;;;;;;;54.13;29.10;;;18.50;99.90;;;;;;5109939;28;20031;-75
2022/10/31 12:44:04;;;;;;;38.47;21.17;;;18.50;99.90;;;;;;5102106;28;20035;-75
2022/10/31 12:46:30;;;;;;;41.30;23.70;;;18.50;99.90;;;;;;5089706;28;20027;-75
2022/10/31 12:49:14;;;;;;;39.22;20.52;;;18.50;99.90;;;;;;5109506;28;20043;-75